Time;durP1;ratioP1;P1;durP2;ratioP2;P2;SDS_P1;SDS_P2;PMS_P1;PMS_P2;Temp;Humidity;BMP_temperature;BMP_pressure;BME280_temperature;BME280_humidity;BME280_pressure;Samples;Min_cycle;Max_cycle;Signal;HPM_P1;HPM_P2
2022/10/13 00:00:04;;;;;;;13.63;7.72;;;14.50;58.30;;;;;;5006402;28;20049;-47
2022/10/13 00:02:31;;;;;;;14.50;8.32;;;14.50;58.80;;;;;;5007356;28;20060;-52
2022/10/13 00:04:58;;;;;;;16.05;8.23;;;14.50;58.30;;;;;;5008573;28;20501;-50
2022/10/13 00:07:25;;;;;;;14.13;8.63;;;14.50;58.20;;;;;;5009881;28;20064;-51
2022/10/13 00:09:53;;;;;;;13.73;8.20;;;14.50;58.20;;;;;;5008551;28;20057;-52
2022/10/13 00:12:21;;;;;;;16.30;8.95;;;14.50;58.20;;;;;;5007327;28;20050;-51
2022/10/13 00:14:48;;;;;;;17.30;8.55;;;14.50;58.20;;;;;;5006624;28;20545;-52
2022/10/13 00:17:16;;;;;;;16.27;9.63;;;14.50;58.20;;;;;;5007808;28;20054;-50
2022/10/13 00:19:43;;;;;;;18.00;9.57;;;14.50;58.40;;;;;;5009180;28;20058;-51
2022/10/13 00:22:10;;;;;;;18.45;10.10;;;14.50;58.40;;;;;;5008093;28;20062;-50
2022/10/13 00:24:37;;;;;;;18.05;9.63;;;14.40;58.40;;;;;;5007872;28;20054;-51
2022/10/13 00:27:04;;;;;;;18.13;9.82;;;14.50;58.50;;;;;;5009484;28;20493;-52
2022/10/13 00:29:33;;;;;;;19.45;10.15;;;14.50;58.60;;;;;;5009835;28;20068;-52
2022/10/13 00:32:00;;;;;;;17.67;9.95;;;14.50;58.70;;;;;;5005531;28;20073;-51
2022/10/13 00:34:28;;;;;;;14.32;9.63;;;14.50;58.70;;;;;;5008038;28;20060;-49
2022/10/13 00:36:55;;;;;;;19.35;9.63;;;14.50;58.70;;;;;;5007539;28;20390;-52
2022/10/13 00:39:22;;;;;;;20.88;10.02;;;14.50;58.70;;;;;;5007444;28;20057;-52
2022/10/13 00:41:49;;;;;;;18.45;9.45;;;14.50;58.70;;;;;;5007032;28;20050;-51
2022/10/13 00:45:00;;;;;;;18.73;10.10;;;14.50;58.70;;;;;;5005740;28;20050;-52
2022/10/13 00:47:30;;;;;;;15.63;9.60;;;14.50;58.80;;;;;;5006638;28;20509;-47
2022/10/13 00:49:58;;;;;;;21.35;10.02;;;14.60;58.60;;;;;;5005402;28;20061;-51
2022/10/13 00:52:26;;;;;;;17.50;9.48;;;14.60;58.60;;;;;;5007142;28;20054;-51
2022/10/13 00:54:55;;;;;;;18.38;9.70;;;14.60;58.60;;;;;;5005224;28;20054;-51
2022/10/13 00:57:23;;;;;;;14.00;8.40;;;14.60;58.70;;;;;;5007478;28;20490;-50
2022/10/13 00:59:50;;;;;;;18.15;8.73;;;14.60;58.70;;;;;;5005995;28;20049;-52
2022/10/13 01:02:19;;;;;;;13.63;8.60;;;14.60;59.10;;;;;;5002557;28;20441;-49
2022/10/13 01:04:47;;;;;;;14.88;8.30;;;14.60;58.60;;;;;;5004429;28;20057;-50
2022/10/13 01:07:16;;;;;;;15.90;9.02;;;14.60;58.50;;;;;;5006721;28;20076;-52
2022/10/13 01:09:44;;;;;;;16.75;9.27;;;14.60;58.40;;;;;;5006399;28;20046;-52
2022/10/13 01:12:23;;;;;;;17.92;9.18;;;14.60;58.30;;;;;;5004419;28;20053;-51
2022/10/13 01:14:55;;;;;;;13.73;8.93;;;14.60;58.30;;;;;;5004309;28;20410;-50
2022/10/13 01:17:31;;;;;;;14.90;8.43;;;14.60;58.20;;;;;;5004405;28;20053;-47
2022/10/13 01:20:33;;;;;;;15.85;8.70;;;14.60;58.20;;;;;;5003933;28;20057;-47
2022/10/13 01:23:18;;;;;;;16.15;8.80;;;14.60;58.20;;;;;;5005866;28;20061;-52
2022/10/13 01:26:17;;;;;;;20.38;10.25;;;14.60;58.20;;;;;;5006067;28;20302;-49
2022/10/13 01:29:13;;;;;;;15.00;8.95;;;14.60;58.20;;;;;;5002413;28;20409;-50
2022/10/13 01:31:47;;;;;;;13.85;8.90;;;14.60;58.20;;;;;;5002583;28;20053;-51
2022/10/13 01:34:20;;;;;;;15.88;8.70;;;14.60;58.10;;;;;;5004321;28;20057;-49
2022/10/13 01:36:54;;;;;;;16.27;8.70;;;14.50;58.10;;;;;;5004511;28;20057;-49
2022/10/13 01:39:23;;;;;;;;;;;14.50;58.10;;;;;;5001048;28;20058;-52
2022/10/13 01:41:55;;;;;;;14.82;8.00;;;14.60;58.20;;;;;;5003406;28;20361;-51
2022/10/13 01:44:29;;;;;;;13.20;8.75;;;14.50;57.90;;;;;;5005392;28;20053;-50
2022/10/13 01:46:59;;;;;;;12.80;7.97;;;14.50;58.00;;;;;;4998760;28;20054;-51
2022/10/13 01:49:30;;;;;;;13.70;8.38;;;14.50;58.00;;;;;;5006189;28;20528;-51
2022/10/13 01:52:02;;;;;;;16.02;9.40;;;14.50;58.10;;;;;;5004469;28;20057;-50
2022/10/13 01:54:30;;;;;;;16.30;9.00;;;14.40;58.10;;;;;;5008573;28;20058;-51
2022/10/13 01:56:57;;;;;;;15.40;8.60;;;14.40;58.10;;;;;;5009066;28;20073;-52
2022/10/13 01:59:27;;;;;;;13.70;8.48;;;14.40;58.10;;;;;;5005494;28;20054;-50
2022/10/13 02:02:03;;;;;;;16.90;9.70;;;14.40;58.20;;;;;;5006277;28;20513;-52
2022/10/13 02:04:43;;;;;;;15.73;8.85;;;14.40;58.20;;;;;;5006936;28;20064;-50
2022/10/13 02:07:19;;;;;;;15.43;9.23;;;14.30;58.20;;;;;;5004081;28;20409;-51
2022/10/13 02:09:55;;;;;;;18.05;10.05;;;14.40;58.20;;;;;;5006435;28;20064;-50
2022/10/13 02:12:29;;;;;;;14.52;8.88;;;14.40;58.20;;;;;;5007180;28;21178;-51
2022/10/13 02:14:58;;;;;;;13.95;9.70;;;14.30;58.10;;;;;;5007274;28;20052;-49
2022/10/13 02:17:28;;;;;;;16.02;9.20;;;14.30;58.60;;;;;;5009032;28;20528;-49
2022/10/13 02:19:56;;;;;;;17.95;9.27;;;14.30;58.10;;;;;;5007693;28;20062;-51
2022/10/13 02:22:29;;;;;;;16.08;10.10;;;14.30;58.10;;;;;;5006063;28;20406;-49
2022/10/13 02:24:57;;;;;;;14.23;9.68;;;14.30;58.20;;;;;;5008394;28;20042;-49
2022/10/13 02:27:24;;;;;;;14.88;9.65;;;14.30;58.10;;;;;;5006104;28;20387;-50
2022/10/13 02:29:53;;;;;;;15.82;9.82;;;14.30;58.20;;;;;;5004132;28;20061;-49
2022/10/13 02:32:21;;;;;;;16.65;9.77;;;14.20;58.10;;;;;;5001154;28;20049;-52
2022/10/13 02:34:49;;;;;;;12.77;8.75;;;14.20;58.20;;;;;;5007330;28;20505;-49
2022/10/13 02:37:17;;;;;;;19.20;10.43;;;14.20;58.20;;;;;;5008525;28;20073;-52
2022/10/13 02:39:44;;;;;;;13.18;8.82;;;14.20;58.20;;;;;;5009520;28;20065;-50
2022/10/13 02:42:12;;;;;;;17.50;9.70;;;14.20;58.20;;;;;;5007513;28;20069;-51
2022/10/13 02:44:39;;;;;;;12.50;9.43;;;14.20;58.30;;;;;;5009178;28;20057;-49
2022/10/13 02:47:06;;;;;;;14.52;9.45;;;14.20;58.30;;;;;;5006664;28;20057;-48
2022/10/13 02:49:34;;;;;;;13.48;8.80;;;14.20;58.30;;;;;;5009555;28;20061;-49
2022/10/13 02:52:02;;;;;;;13.38;8.93;;;14.10;58.20;;;;;;5008573;28;20060;-49
2022/10/13 02:54:29;;;;;;;13.95;8.93;;;14.10;58.70;;;;;;5006106;28;20053;-51
2022/10/13 02:56:57;;;;;;;15.90;10.27;;;14.10;58.30;;;;;;5007879;28;20057;-51
2022/10/13 02:59:24;;;;;;;14.48;8.52;;;14.10;58.30;;;;;;5007633;28;20045;-48
2022/10/13 03:01:51;;;;;;;14.57;9.02;;;14.10;58.30;;;;;;5003195;28;20057;-44
2022/10/13 03:04:18;;;;;;;11.95;8.20;;;14.00;58.30;;;;;;5003400;28;20054;-43
2022/10/13 03:06:45;;;;;;;12.80;8.88;;;14.10;58.30;;;;;;5003616;28;20054;-45
2022/10/13 03:09:14;;;;;;;11.68;8.70;;;14.10;58.40;;;;;;5001875;28;20065;-42
2022/10/13 03:11:41;;;;;;;16.95;10.82;;;14.10;58.40;;;;;;5003980;28;20057;-49
2022/10/13 03:14:08;;;;;;;14.02;8.98;;;14.00;58.40;;;;;;4991774;28;20054;-45
2022/10/13 03:16:35;;;;;;;15.25;9.55;;;14.00;58.40;;;;;;5014317;28;20081;-47
2022/10/13 03:19:03;;;;;;;13.00;9.13;;;14.00;58.40;;;;;;5002923;28;20058;-46
2022/10/13 03:21:31;;;;;;;12.43;8.38;;;14.00;58.40;;;;;;5003750;28;20490;-42
2022/10/13 03:23:58;;;;;;;17.10;10.40;;;14.00;58.40;;;;;;5003907;28;20080;-46
2022/10/13 03:26:27;;;;;;;14.10;9.55;;;14.00;58.40;;;;;;5004898;28;20057;-42
2022/10/13 03:28:54;;;;;;;15.77;8.60;;;14.00;58.50;;;;;;5004725;28;20046;-45
2022/10/13 03:31:21;;;;;;;13.15;8.45;;;13.90;58.40;;;;;;5004298;28;20053;-47
2022/10/13 03:33:51;;;;;;;12.82;8.23;;;13.90;58.40;;;;;;5004440;28;20054;-49
2022/10/13 03:36:18;;;;;;;12.18;7.93;;;13.90;58.40;;;;;;5003376;28;20065;-43
2022/10/13 03:38:46;;;;;;;13.25;8.40;;;13.90;58.40;;;;;;5002637;28;20490;-44
2022/10/13 03:41:15;;;;;;;11.35;7.93;;;13.90;58.40;;;;;;5001802;28;20413;-47
2022/10/13 03:43:45;;;;;;;12.38;8.65;;;13.90;58.40;;;;;;5001973;28;20049;-44
2022/10/13 03:46:13;;;;;;;12.15;8.25;;;13.90;58.40;;;;;;5000772;28;20057;-45
2022/10/13 03:48:40;;;;;;;12.35;8.25;;;13.90;58.40;;;;;;5002150;28;20050;-44
2022/10/13 03:51:09;;;;;;;11.85;8.32;;;13.90;58.40;;;;;;5000422;28;20057;-48
2022/10/13 03:53:36;;;;;;;13.18;8.48;;;13.90;58.40;;;;;;4999108;28;20520;-43
2022/10/13 03:56:05;;;;;;;18.48;9.30;;;13.90;58.40;;;;;;4996999;28;20064;-44
2022/10/13 03:58:32;;;;;;;11.20;8.45;;;13.90;58.40;;;;;;4998617;28;20053;-48
2022/10/13 04:01:04;;;;;;;10.10;7.78;;;13.90;58.40;;;;;;4998978;28;20061;-45
2022/10/13 04:03:32;;;;;;;11.88;8.50;;;13.80;58.40;;;;;;4998942;28;20054;-44
2022/10/13 04:06:01;;;;;;;31.20;17.00;;;13.90;59.00;;;;;;5001886;28;20053;-48
2022/10/13 04:08:28;;;;;;;23.80;14.70;;;13.80;58.50;;;;;;5002226;28;20054;-45
2022/10/13 04:10:59;;;;;;;16.27;10.52;;;13.80;58.50;;;;;;4997666;28;20073;-45
2022/10/13 04:13:27;;;;;;;14.73;9.65;;;13.80;58.50;;;;;;5000462;28;20050;-47
2022/10/13 04:15:54;;;;;;;15.13;9.15;;;13.80;58.50;;;;;;4995587;28;20501;-46
2022/10/13 04:18:22;;;;;;;13.23;9.18;;;13.80;58.60;;;;;;4997114;28;20072;-47
2022/10/13 04:20:50;;;;;;;14.57;9.23;;;13.80;58.60;;;;;;5000106;28;20936;-45
2022/10/13 04:23:17;;;;;;;13.85;8.93;;;13.80;58.60;;;;;;5003278;28;20544;-42
2022/10/13 04:25:45;;;;;;;14.82;9.10;;;13.80;58.60;;;;;;4996895;28;20054;-43
2022/10/13 04:28:12;;;;;;;13.02;8.82;;;13.80;58.60;;;;;;5000252;28;20061;-42
2022/10/13 04:30:39;;;;;;;13.45;8.50;;;13.80;58.60;;;;;;4997832;28;20050;-50
2022/10/13 04:33:07;;;;;;;25.55;14.23;;;13.80;58.60;;;;;;4997924;28;20057;-47
2022/10/13 04:35:40;;;;;;;47.78;25.63;;;13.80;58.60;;;;;;4997652;28;20046;-47
2022/10/13 04:38:07;;;;;;;23.23;13.60;;;13.80;58.70;;;;;;5002446;28;20422;-44
2022/10/13 04:40:35;;;;;;;14.48;9.85;;;13.80;58.70;;;;;;5000922;28;20058;-47
2022/10/13 04:43:02;;;;;;;14.27;9.98;;;13.80;58.70;;;;;;5000109;28;20057;-46
2022/10/13 04:45:30;;;;;;;19.92;10.02;;;13.70;58.60;;;;;;4994494;28;20930;-45
2022/10/13 04:47:57;;;;;;;15.13;9.45;;;13.80;58.70;;;;;;5003534;28;20080;-43
2022/10/13 04:50:24;;;;;;;13.88;9.95;;;13.70;58.70;;;;;;5001795;28;20414;-42
2022/10/13 04:52:53;;;;;;;15.07;10.38;;;13.80;58.80;;;;;;4999528;28;20050;-42
2022/10/13 04:55:20;;;;;;;20.60;11.75;;;13.70;58.70;;;;;;5000536;28;20058;-46
2022/10/13 04:57:47;;;;;;;15.13;10.80;;;13.70;58.70;;;;;;5000121;28;20387;-46
2022/10/13 05:00:15;;;;;;;26.73;15.05;;;13.70;58.70;;;;;;4998908;28;20061;-47
2022/10/13 05:02:42;;;;;;;28.73;16.42;;;13.70;58.70;;;;;;4999409;28;20076;-43
2022/10/13 05:05:10;;;;;;;20.80;13.10;;;13.70;58.80;;;;;;5000960;28;20073;-46
2022/10/13 05:07:37;;;;;;;19.90;12.10;;;13.70;58.80;;;;;;5003436;28;20053;-43
2022/10/13 05:10:06;;;;;;;20.23;11.95;;;13.70;58.80;;;;;;5000963;28;20050;-44
2022/10/13 05:12:33;;;;;;;17.38;12.48;;;13.70;58.90;;;;;;5000937;28;20066;-43
2022/10/13 05:15:00;;;;;;;17.38;11.40;;;13.70;59.30;;;;;;5001786;28;20050;-44
2022/10/13 05:17:31;;;;;;;19.00;10.80;;;13.70;58.90;;;;;;4999812;28;20064;-44
2022/10/13 05:19:58;;;;;;;17.45;11.50;;;13.70;58.90;;;;;;5001491;28;20054;-44
2022/10/13 05:22:26;;;;;;;17.65;11.45;;;13.70;58.90;;;;;;4999360;28;20054;-43
2022/10/13 05:24:53;;;;;;;15.20;10.30;;;13.60;58.90;;;;;;5003012;28;20045;-42
2022/10/13 05:27:22;;;;;;;15.75;11.02;;;13.70;58.90;;;;;;5001403;28;20053;-42
2022/10/13 05:29:49;;;;;;;16.20;10.75;;;13.70;58.90;;;;;;5002252;28;20421;-46
2022/10/13 05:32:16;;;;;;;15.40;10.43;;;13.70;58.90;;;;;;5000118;28;20058;-46
2022/10/13 05:34:43;;;;;;;15.73;11.02;;;13.70;58.90;;;;;;5005823;28;20068;-43
2022/10/13 05:37:10;;;;;;;16.80;10.90;;;13.60;58.90;;;;;;5004295;28;20470;-43
2022/10/13 05:39:37;;;;;;;20.33;11.18;;;13.60;58.90;;;;;;5003957;28;20080;-42
2022/10/13 05:42:05;;;;;;;20.27;12.05;;;13.60;58.90;;;;;;5005736;28;20057;-43
2022/10/13 05:44:35;;;;;;;17.38;10.45;;;13.60;59.00;;;;;;5005348;28;20061;-50
2022/10/13 05:47:02;;;;;;;20.45;11.43;;;13.60;59.00;;;;;;5006682;28;20512;-46
2022/10/13 05:49:29;;;;;;;19.35;12.57;;;13.60;59.00;;;;;;5005848;28;20437;-43
2022/10/13 05:52:00;;;;;;;18.77;10.73;;;13.60;59.00;;;;;;5006229;28;20057;-44
2022/10/13 05:54:30;;;;;;;22.48;12.52;;;13.60;59.00;;;;;;5004691;28;20065;-43
2022/10/13 05:57:03;;;;;;;18.10;11.68;;;13.60;59.10;;;;;;5001496;28;20061;-44
2022/10/13 05:59:33;;;;;;;20.30;11.80;;;13.60;59.10;;;;;;5004778;28;20054;-47
2022/10/13 06:02:03;;;;;;;19.13;12.55;;;13.60;59.10;;;;;;4994322;28;20049;-45
2022/10/13 06:04:34;;;;;;;20.75;12.50;;;13.60;59.10;;;;;;5005249;28;20054;-45
2022/10/13 06:07:01;;;;;;;17.75;11.50;;;13.60;59.10;;;;;;5006973;28;20062;-44
2022/10/13 06:09:33;;;;;;;19.08;11.60;;;13.60;59.10;;;;;;5006819;28;20065;-43
2022/10/13 06:12:01;;;;;;;22.83;12.55;;;13.60;59.20;;;;;;5003435;28;20061;-45
2022/10/13 06:14:28;;;;;;;18.48;12.35;;;13.60;59.20;;;;;;5002462;28;20061;-42
2022/10/13 06:16:55;;;;;;;23.33;13.95;;;13.60;59.20;;;;;;5005379;28;20069;-46
2022/10/13 06:19:23;;;;;;;21.50;13.65;;;13.60;59.20;;;;;;5005135;28;20061;-42
2022/10/13 06:21:51;;;;;;;20.13;12.65;;;13.60;59.20;;;;;;5004371;28;20054;-41
2022/10/13 06:24:18;;;;;;;21.38;13.15;;;13.60;59.20;;;;;;5003577;28;20494;-44
2022/10/13 06:26:45;;;;;;;20.02;12.75;;;13.60;59.20;;;;;;5005710;28;20062;-44
2022/10/13 06:29:12;;;;;;;18.50;12.18;;;13.60;59.30;;;;;;5004668;28;20061;-44
2022/10/13 06:31:40;;;;;;;17.98;11.88;;;13.60;59.30;;;;;;5002099;28;20433;-45
2022/10/13 06:34:07;;;;;;;20.80;12.32;;;13.60;59.30;;;;;;5002931;28;20062;-43
2022/10/13 06:36:36;;;;;;;17.85;11.93;;;13.60;59.30;;;;;;5004244;28;20064;-44
2022/10/13 06:39:04;;;;;;;21.02;12.40;;;13.60;59.40;;;;;;5004939;28;20050;-43
2022/10/13 06:41:31;;;;;;;20.27;12.88;;;13.60;59.40;;;;;;5004982;28;20057;-42
2022/10/13 06:43:58;;;;;;;23.67;13.38;;;13.60;59.40;;;;;;5006222;28;20512;-44
2022/10/13 06:46:26;;;;;;;20.83;13.07;;;13.60;59.50;;;;;;5000401;28;20050;-45
2022/10/13 06:48:53;;;;;;;18.73;11.90;;;13.60;59.60;;;;;;5004991;28;20065;-44
2022/10/13 06:51:21;;;;;;;20.83;12.20;;;13.60;59.60;;;;;;5002350;28;20054;-45
2022/10/13 06:53:49;;;;;;;21.10;11.82;;;13.60;59.70;;;;;;5003030;28;20145;-44
2022/10/13 06:56:17;;;;;;;19.70;11.38;;;13.70;59.80;;;;;;5002021;28;20050;-42
2022/10/13 06:58:44;;;;;;;17.85;11.77;;;13.60;59.80;;;;;;5005243;28;21244;-44
2022/10/13 07:01:13;;;;;;;23.92;13.27;;;13.60;59.80;;;;;;5002160;28;20054;-45
2022/10/13 07:03:40;;;;;;;20.65;11.93;;;13.60;59.90;;;;;;5005820;28;20058;-44
2022/10/13 07:06:08;;;;;;;21.92;13.05;;;13.60;59.90;;;;;;5001285;28;20056;-45
2022/10/13 07:08:35;;;;;;;20.17;12.75;;;13.70;60.10;;;;;;5005686;28;20057;-43
2022/10/13 07:11:08;;;;;;;18.20;11.95;;;13.70;60.00;;;;;;5004340;28;20046;-42
2022/10/13 07:13:35;;;;;;;18.73;11.65;;;13.70;60.20;;;;;;4999371;28;20054;-46
2022/10/13 07:16:04;;;;;;;21.92;13.57;;;13.70;60.10;;;;;;5003417;28;20049;-42
2022/10/13 07:18:31;;;;;;;24.33;14.57;;;13.80;60.40;;;;;;5004466;28;20068;-43
2022/10/13 07:20:59;;;;;;;18.05;12.00;;;13.70;60.40;;;;;;5002326;28;20061;-45
2022/10/13 07:23:27;;;;;;;20.42;12.38;;;13.80;60.60;;;;;;5002491;28;20054;-46
2022/10/13 07:25:55;;;;;;;19.75;12.05;;;13.80;60.60;;;;;;5001659;28;20054;-43
2022/10/13 07:28:25;;;;;;;22.75;13.38;;;13.80;60.70;;;;;;5000379;28;20068;-43
2022/10/13 07:30:52;;;;;;;22.45;12.70;;;13.80;60.90;;;;;;4998533;28;20524;-43
2022/10/13 07:33:20;;;;;;;20.08;12.60;;;13.90;60.90;;;;;;5002793;28;20054;-45
2022/10/13 07:35:47;;;;;;;21.08;12.60;;;13.90;61.10;;;;;;5004669;28;20058;-46
2022/10/13 07:38:14;;;;;;;20.50;11.80;;;13.90;61.00;;;;;;5003256;28;20050;-48
2022/10/13 07:40:42;;;;;;;21.30;12.68;;;13.90;61.00;;;;;;4999780;28;20053;-48
2022/10/13 07:43:09;;;;;;;49.50;23.25;;;14.00;61.00;;;;;;5002377;28;20058;-45
2022/10/13 07:45:38;;;;;;;79.22;39.13;;;14.00;61.00;;;;;;5001653;28;20045;-45
2022/10/13 07:48:05;;;;;;;38.78;20.20;;;14.10;61.10;;;;;;5002253;28;20053;-42
2022/10/13 07:50:32;;;;;;;27.02;16.25;;;14.10;61.10;;;;;;5004063;28;20053;-46
2022/10/13 07:53:00;;;;;;;30.77;15.65;;;14.10;61.10;;;;;;5001385;28;20479;-43
2022/10/13 07:55:27;;;;;;;23.05;14.30;;;14.10;61.20;;;;;;5003767;28;20057;-45
2022/10/13 07:57:54;;;;;;;25.73;14.25;;;14.10;61.20;;;;;;5003153;28;20057;-46
2022/10/13 08:00:21;;;;;;;22.08;12.65;;;14.20;61.30;;;;;;4995982;28;20050;-42
2022/10/13 08:02:51;;;;;;;20.88;13.40;;;14.20;61.30;;;;;;4999814;28;20050;-47
2022/10/13 08:05:18;;;;;;;24.40;14.38;;;14.20;61.40;;;;;;4994314;28;20548;-47
2022/10/13 08:07:45;;;;;;;22.40;12.98;;;14.20;61.40;;;;;;5002771;28;20065;-44
2022/10/13 08:10:14;;;;;;;22.23;13.13;;;14.30;61.30;;;;;;5000312;28;20058;-43
2022/10/13 08:12:41;;;;;;;23.58;13.50;;;14.30;61.30;;;;;;5002892;28;20056;-45
2022/10/13 08:15:09;;;;;;;23.38;13.15;;;14.30;61.30;;;;;;5001630;28;20065;-43
2022/10/13 08:17:37;;;;;;;21.70;12.07;;;14.40;61.40;;;;;;5001750;28;20065;-43
2022/10/13 08:20:06;;;;;;;20.95;13.23;;;14.40;61.30;;;;;;5000305;28;20084;-45
2022/10/13 08:22:34;;;;;;;19.95;12.73;;;14.40;61.40;;;;;;5004907;28;20061;-43
2022/10/13 08:25:01;;;;;;;19.17;12.18;;;14.50;61.40;;;;;;5001137;28;20064;-45
2022/10/13 08:27:29;;;;;;;22.50;12.30;;;14.50;61.40;;;;;;5004171;28;20050;-44
2022/10/13 08:29:56;;;;;;;29.30;13.27;;;14.50;61.40;;;;;;4999634;28;20058;-47
2022/10/13 08:32:24;;;;;;;27.15;14.27;;;14.60;61.50;;;;;;5000045;28;20048;-46
2022/10/13 08:34:51;;;;;;;23.25;13.05;;;14.60;61.50;;;;;;5002968;28;20065;-46
2022/10/13 08:37:20;;;;;;;18.88;12.48;;;14.60;61.50;;;;;;5002351;28;20065;-44
2022/10/13 08:39:48;;;;;;;23.40;13.40;;;14.70;61.60;;;;;;5000303;28;20053;-43
2022/10/13 08:42:18;;;;;;;22.15;13.27;;;14.70;61.70;;;;;;5001298;28;20057;-46
2022/10/13 08:44:48;;;;;;;19.88;12.93;;;14.80;61.90;;;;;;4996147;28;20062;-47
2022/10/13 08:47:27;;;;;;;26.08;15.07;;;14.80;61.90;;;;;;4999658;28;20087;-47
2022/10/13 08:49:56;;;;;;;21.40;13.10;;;14.80;62.00;;;;;;5000281;28;20049;-47
2022/10/13 08:52:27;;;;;;;25.98;14.02;;;14.90;62.00;;;;;;5002076;28;20060;-44
2022/10/13 08:54:56;;;;;;;20.80;12.93;;;14.90;62.00;;;;;;5003258;28;20053;-43
2022/10/13 08:57:23;;;;;;;23.52;12.85;;;14.90;61.90;;;;;;4999744;28;20057;-43
2022/10/13 08:59:52;;;;;;;21.85;12.98;;;15.00;61.90;;;;;;5000311;28;21366;-43
2022/10/13 09:02:25;;;;;;;25.85;13.57;;;15.00;61.90;;;;;;4998679;28;20046;-49
2022/10/13 09:04:53;;;;;;;26.88;12.57;;;15.10;62.10;;;;;;5002102;28;20065;-47
2022/10/13 09:07:24;;;;;;;19.25;11.68;;;15.20;62.20;;;;;;5003354;28;20497;-44
2022/10/13 09:09:54;;;;;;;26.95;13.40;;;15.20;62.30;;;;;;5002145;28;20062;-46
2022/10/13 09:12:23;;;;;;;22.02;12.75;;;15.20;62.40;;;;;;5001390;28;20050;-45
2022/10/13 09:14:58;;;;;;;22.33;12.20;;;15.30;62.50;;;;;;4997200;28;20058;-46
2022/10/13 09:17:26;;;;;;;19.17;12.38;;;15.30;62.80;;;;;;4999800;28;20058;-43
2022/10/13 09:20:00;;;;;;;21.90;11.95;;;15.40;62.80;;;;;;5003605;28;20050;-44
2022/10/13 09:22:30;;;;;;;22.45;11.60;;;15.40;63.00;;;;;;5001410;28;20383;-46
2022/10/13 09:25:25;;;;;;;17.98;10.77;;;15.50;63.10;;;;;;5001989;28;20050;-48
2022/10/13 09:27:56;;;;;;;22.15;12.05;;;15.60;63.40;;;;;;4974433;28;20517;-43
2022/10/13 09:30:31;;;;;;;25.73;12.93;;;15.60;63.20;;;;;;5000452;28;20075;-48
2022/10/13 09:33:19;;;;;;;23.58;12.98;;;15.70;63.30;;;;;;5002661;28;20053;-45
2022/10/13 09:35:48;;;;;;;21.52;12.40;;;15.80;63.50;;;;;;5002809;28;21077;-45
2022/10/13 09:38:18;;;;;;;22.35;12.77;;;15.80;63.30;;;;;;4995401;28;20065;-46
2022/10/13 09:40:59;;;;;;;20.98;12.57;;;15.90;63.40;;;;;;4997889;28;20050;-45
2022/10/13 09:43:32;;;;;;;21.27;12.20;;;15.90;63.40;;;;;;5003021;28;20078;-44
2022/10/13 09:46:01;;;;;;;19.55;12.05;;;16.00;63.40;;;;;;5001253;28;20050;-47
2022/10/13 09:48:31;;;;;;;20.52;12.30;;;16.10;63.40;;;;;;5000494;28;20065;-48
2022/10/13 09:50:58;;;;;;;24.48;12.10;;;16.10;63.30;;;;;;5002266;28;20046;-48
2022/10/13 09:53:32;;;;;;;22.30;12.70;;;16.20;63.20;;;;;;5000160;28;20054;-47
2022/10/13 09:56:10;;;;;;;25.83;13.30;;;16.20;63.20;;;;;;4998641;28;20057;-44
2022/10/13 09:58:44;;;;;;;22.60;12.25;;;16.30;63.20;;;;;;4997561;28;20062;-47
2022/10/13 10:01:22;;;;;;;29.30;11.98;;;16.40;63.10;;;;;;4998250;28;20050;-44
2022/10/13 10:03:51;;;;;;;19.63;11.55;;;16.40;63.00;;;;;;5002328;28;20058;-43
2022/10/13 10:06:18;;;;;;;19.73;11.05;;;16.50;62.90;;;;;;5002976;28;20054;-45
2022/10/13 10:08:52;;;;;;;16.67;10.00;;;16.50;62.80;;;;;;5001879;28;20061;-48
2022/10/13 10:11:27;;;;;;;23.80;10.95;;;16.60;63.00;;;;;;5000462;28;20411;-46
2022/10/13 10:13:54;;;;;;;17.45;10.80;;;16.60;62.80;;;;;;5002903;28;20065;-47
2022/10/13 10:16:30;;;;;;;20.13;12.30;;;16.70;62.70;;;;;;5004764;28;20054;-45
2022/10/13 10:19:03;;;;;;;21.38;10.43;;;16.70;62.60;;;;;;5006898;28;20513;-49
2022/10/13 10:21:36;;;;;;;16.98;10.00;;;16.80;62.60;;;;;;5003248;28;20058;-47
2022/10/13 10:24:14;;;;;;;17.42;10.35;;;16.70;62.50;;;;;;5006510;28;20061;-44
2022/10/13 10:26:54;;;;;;;17.67;8.85;;;16.80;62.40;;;;;;5005364;28;20061;-46
2022/10/13 10:29:37;;;;;;;22.15;10.45;;;16.90;62.50;;;;;;5004660;28;20053;-43
2022/10/13 10:32:15;;;;;;;18.10;10.82;;;16.90;63.00;;;;;;5002376;28;20050;-44
2022/10/13 10:34:49;;;;;;;16.63;10.02;;;17.00;62.20;;;;;;5005163;28;20049;-45
2022/10/13 10:37:25;;;;;;;17.58;10.88;;;17.00;62.00;;;;;;5005862;28;20053;-46
2022/10/13 10:40:03;;;;;;;19.40;10.55;;;17.10;61.80;;;;;;5006278;28;20482;-47
2022/10/13 10:42:55;;;;;;;22.70;11.55;;;17.10;61.70;;;;;;5004591;28;20512;-47
2022/10/13 10:45:26;;;;;;;19.38;11.02;;;17.10;61.50;;;;;;5001581;28;20053;-45
2022/10/13 10:47:56;;;;;;;17.92;11.15;;;17.20;61.30;;;;;;5005449;28;20049;-45
2022/10/13 10:50:24;;;;;;;19.85;11.27;;;17.20;61.20;;;;;;5003914;28;20501;-46
2022/10/13 10:53:00;;;;;;;17.20;9.85;;;17.20;61.10;;;;;;5004027;28;20054;-42
2022/10/13 10:55:32;;;;;;;19.23;10.80;;;17.30;61.10;;;;;;5004527;28;20058;-46
2022/10/13 10:58:12;;;;;;;17.05;9.82;;;17.30;60.90;;;;;;5003141;28;20490;-46
2022/10/13 11:00:45;;;;;;;21.95;10.27;;;17.30;60.90;;;;;;5002156;28;20433;-48
2022/10/13 11:03:22;;;;;;;20.37;10.17;;;17.30;60.60;;;;;;5003471;28;20466;-45
2022/10/13 11:06:00;;;;;;;19.52;9.35;;;17.40;60.50;;;;;;5005279;28;20073;-45
2022/10/13 11:08:29;;;;;;;20.45;11.02;;;17.40;60.40;;;;;;5005511;28;20046;-48
2022/10/13 11:11:35;;;;;;;15.90;10.48;;;17.40;60.20;;;;;;5003511;28;20050;-50
2022/10/13 11:14:26;;;;;;;20.80;11.25;;;17.50;60.20;;;;;;5003360;28;20417;-46
2022/10/13 11:17:10;;;;;;;17.80;10.02;;;17.50;59.90;;;;;;5003838;28;20521;-44
2022/10/13 11:19:38;;;;;;;21.92;10.80;;;17.50;59.80;;;;;;5003838;28;20418;-48
2022/10/13 11:22:15;;;;;;;18.02;9.80;;;17.50;59.80;;;;;;5002809;28;20050;-48
2022/10/13 11:24:54;;;;;;;21.33;10.18;;;17.60;59.80;;;;;;5003647;28;20057;-45
2022/10/13 11:27:28;;;;;;;16.98;9.98;;;17.60;59.70;;;;;;4999618;28;20058;-47
2022/10/13 11:29:59;;;;;;;23.63;10.68;;;17.60;59.70;;;;;;5001096;28;20060;-45
2022/10/13 11:32:54;;;;;;;20.88;10.80;;;17.60;59.60;;;;;;5000222;28;20053;-46
2022/10/13 11:35:24;;;;;;;19.50;10.45;;;17.70;59.60;;;;;;5005220;28;20216;-45
2022/10/13 11:38:15;;;;;;;20.25;10.32;;;17.70;59.50;;;;;;5002408;28;20058;-49
2022/10/13 11:40:57;;;;;;;18.63;10.13;;;17.70;59.30;;;;;;5001501;28;20541;-47
2022/10/13 11:43:45;;;;;;;18.73;10.52;;;17.70;59.30;;;;;;5004471;28;20045;-47
2022/10/13 11:46:33;;;;;;;17.80;11.00;;;17.80;59.30;;;;;;5003217;28;20054;-45
2022/10/13 11:49:39;;;;;;;20.77;9.43;;;17.80;59.20;;;;;;5004162;28;20061;-48
2022/10/13 11:52:30;;;;;;;22.70;10.10;;;17.80;59.10;;;;;;5003879;28;20077;-48
2022/10/13 11:55:03;;;;;;;18.88;8.75;;;17.80;59.20;;;;;;5003978;28;20506;-47
2022/10/13 11:57:31;;;;;;;17.80;8.52;;;17.90;58.90;;;;;;5001780;28;20073;-45
2022/10/13 11:59:58;;;;;;;14.68;6.85;;;17.90;58.80;;;;;;5001917;28;20053;-49
2022/10/13 12:02:28;;;;;;;19.50;7.15;;;17.90;58.70;;;;;;5001449;28;20481;-45
2022/10/13 12:05:03;;;;;;;14.15;6.82;;;17.90;58.80;;;;;;5001748;28;20052;-47
2022/10/13 12:07:34;;;;;;;10.65;6.13;;;18.00;58.60;;;;;;5004655;28;20054;-47
2022/10/13 12:10:05;;;;;;;16.05;6.63;;;18.00;58.50;;;;;;5005220;28;20061;-49
2022/10/13 12:12:32;;;;;;;16.17;6.15;;;18.10;58.30;;;;;;5002469;28;20513;-46
2022/10/13 12:15:00;;;;;;;14.65;6.20;;;18.10;58.20;;;;;;5003729;28;20064;-45
2022/10/13 12:17:34;;;;;;;9.65;5.38;;;18.10;58.10;;;;;;5003180;28;20058;-45
2022/10/13 12:20:03;;;;;;;21.90;6.65;;;18.20;58.10;;;;;;5003620;28;20050;-48
2022/10/13 12:22:30;;;;;;;11.63;5.88;;;18.20;58.10;;;;;;5004639;28;20409;-45
2022/10/13 12:25:01;;;;;;;15.68;6.32;;;18.30;58.00;;;;;;5004268;28;20557;-45
2022/10/13 12:27:33;;;;;;;10.80;6.10;;;18.30;57.70;;;;;;5003914;28;20053;-46
2022/10/13 12:30:02;;;;;;;15.45;5.57;;;18.40;57.60;;;;;;5004229;28;20494;-47
2022/10/13 12:32:32;;;;;;;13.10;5.43;;;18.40;57.30;;;;;;5003101;28;20068;-48
2022/10/13 12:35:15;;;;;;;12.75;5.57;;;18.40;56.90;;;;;;5003616;28;20504;-50
2022/10/13 12:37:42;;;;;;;17.00;6.13;;;18.40;56.60;;;;;;5004740;28;20061;-45
2022/10/13 12:40:15;;;;;;;10.25;5.25;;;18.50;56.50;;;;;;5002502;28;20054;-50
2022/10/13 12:42:43;;;;;;;11.75;5.60;;;18.50;56.30;;;;;;4994752;28;20722;-48
2022/10/13 12:45:15;;;;;;;17.20;5.95;;;18.50;56.20;;;;;;5002202;28;20069;-44
2022/10/13 12:47:49;;;;;;;14.18;5.60;;;18.50;56.00;;;;;;5000600;28;20053;-47